sensor_id;sensor_type;location;lat;lon;timestamp;P1;durP1;ratioP1;P2;durP2;ratioP2
40449;SDS011;41787;53.570;10.032;2023-05-16T00:00:04;8.73;;;3.67;;
40449;SDS011;41787;53.570;10.032;2023-05-16T00:02:33;4.90;;;3.30;;
40449;SDS011;41787;53.570;10.032;2023-05-16T00:04:59;3.88;;;2.30;;
40449;SDS011;41787;53.570;10.032;2023-05-16T00:07:25;1.88;;;1.65;;
40449;SDS011;41787;53.570;10.032;2023-05-16T00:09:51;7.95;;;3.85;;
40449;SDS011;41787;53.570;10.032;2023-05-16T00:12:17;7.43;;;3.67;;
40449;SDS011;41787;53.570;10.032;2023-05-16T00:14:43;4.53;;;3.00;;
40449;SDS011;41787;53.570;10.032;2023-05-16T00:17:09;3.22;;;2.13;;
40449;SDS011;41787;53.570;10.032;2023-05-16T00:19:36;5.65;;;4.03;;
40449;SDS011;41787;53.570;10.032;2023-05-16T00:22:03;6.43;;;3.55;;
40449;SDS011;41787;53.570;10.032;2023-05-16T00:24:29;4.60;;;2.22;;
40449;SDS011;41787;53.570;10.032;2023-05-16T00:26:56;4.90;;;2.65;;
40449;SDS011;41787;53.570;10.032;2023-05-16T00:29:22;3.13;;;2.20;;
40449;SDS011;41787;53.570;10.032;2023-05-16T00:31:51;3.30;;;2.50;;
40449;SDS011;41787;53.570;10.032;2023-05-16T00:34:16;3.10;;;2.22;;
40449;SDS011;41787;53.570;10.032;2023-05-16T00:36:45;3.80;;;2.03;;
40449;SDS011;41787;53.570;10.032;2023-05-16T00:39:11;3.15;;;1.65;;
40449;SDS011;41787;53.570;10.032;2023-05-16T00:41:37;4.18;;;1.80;;
40449;SDS011;41787;53.570;10.032;2023-05-16T00:44:03;2.65;;;1.85;;
40449;SDS011;41787;53.570;10.032;2023-05-16T00:46:29;3.65;;;2.03;;
40449;SDS011;41787;53.570;10.032;2023-05-16T00:48:55;2.90;;;1.77;;
40449;SDS011;41787;53.570;10.032;2023-05-16T00:51:21;5.47;;;1.50;;
40449;SDS011;41787;53.570;10.032;2023-05-16T00:53:47;3.50;;;2.17;;
40449;SDS011;41787;53.570;10.032;2023-05-16T00:56:13;1.55;;;1.20;;
40449;SDS011;41787;53.570;10.032;2023-05-16T00:58:39;3.22;;;1.48;;
40449;SDS011;41787;53.570;10.032;2023-05-16T01:01:05;3.08;;;0.95;;
40449;SDS011;41787;53.570;10.032;2023-05-16T01:03:31;5.13;;;1.70;;
40449;SDS011;41787;53.570;10.032;2023-05-16T01:05:58;2.83;;;0.93;;
40449;SDS011;41787;53.570;10.032;2023-05-16T01:08:24;2.72;;;1.42;;
40449;SDS011;41787;53.570;10.032;2023-05-16T01:11:01;3.60;;;1.10;;
40449;SDS011;41787;53.570;10.032;2023-05-16T01:16:12;3.42;;;1.67;;
40449;SDS011;41787;53.570;10.032;2023-05-16T01:21:09;2.15;;;1.42;;
40449;SDS011;41787;53.570;10.032;2023-05-16T01:26:22;3.08;;;1.42;;
40449;SDS011;41787;53.570;10.032;2023-05-16T01:28:50;2.80;;;1.20;;
40449;SDS011;41787;53.570;10.032;2023-05-16T01:31:17;0.80;;;0.80;;
40449;SDS011;41787;53.570;10.032;2023-05-16T01:33:43;1.55;;;1.27;;
40449;SDS011;41787;53.570;10.032;2023-05-16T01:36:20;4.10;;;1.38;;
40449;SDS011;41787;53.570;10.032;2023-05-16T01:41:31;4.20;;;1.17;;
40449;SDS011;41787;53.570;10.032;2023-05-16T01:44:01;2.67;;;1.55;;
40449;SDS011;41787;53.570;10.032;2023-05-16T01:46:31;3.78;;;1.83;;
40449;SDS011;41787;53.570;10.032;2023-05-16T01:49:05;3.35;;;1.70;;
40449;SDS011;41787;53.570;10.032;2023-05-16T01:51:33;2.28;;;1.15;;
40449;SDS011;41787;53.570;10.032;2023-05-16T01:54:05;4.50;;;1.80;;
40449;SDS011;41787;53.570;10.032;2023-05-16T01:56:34;8.45;;;1.48;;
40449;SDS011;41787;53.570;10.032;2023-05-16T01:59:01;7.55;;;1.75;;
40449;SDS011;41787;53.570;10.032;2023-05-16T02:01:29;3.92;;;1.23;;
40449;SDS011;41787;53.570;10.032;2023-05-16T02:03:55;2.17;;;1.75;;
40449;SDS011;41787;53.570;10.032;2023-05-16T02:06:21;6.55;;;1.17;;
40449;SDS011;41787;53.570;10.032;2023-05-16T02:08:49;11.13;;;1.05;;
40449;SDS011;41787;53.570;10.032;2023-05-16T02:11:16;6.60;;;1.60;;
40449;SDS011;41787;53.570;10.032;2023-05-16T02:13:41;9.13;;;2.13;;
40449;SDS011;41787;53.570;10.032;2023-05-16T02:16:09;7.95;;;1.17;;
40449;SDS011;41787;53.570;10.032;2023-05-16T02:18:35;9.50;;;2.30;;
40449;SDS011;41787;53.570;10.032;2023-05-16T02:21:01;3.92;;;1.08;;
40449;SDS011;41787;53.570;10.032;2023-05-16T02:23:27;3.00;;;1.65;;
40449;SDS011;41787;53.570;10.032;2023-05-16T02:25:53;6.55;;;0.75;;
40449;SDS011;41787;53.570;10.032;2023-05-16T02:28:19;3.88;;;1.45;;
40449;SDS011;41787;53.570;10.032;2023-05-16T02:30:45;7.20;;;1.23;;
40449;SDS011;41787;53.570;10.032;2023-05-16T02:33:11;11.95;;;1.77;;
40449;SDS011;41787;53.570;10.032;2023-05-16T02:35:37;4.22;;;0.98;;
40449;SDS011;41787;53.570;10.032;2023-05-16T02:38:03;7.55;;;1.27;;
40449;SDS011;41787;53.570;10.032;2023-05-16T02:40:29;7.45;;;1.85;;
40449;SDS011;41787;53.570;10.032;2023-05-16T02:42:55;7.32;;;1.25;;
40449;SDS011;41787;53.570;10.032;2023-05-16T02:45:21;6.78;;;2.03;;
40449;SDS011;41787;53.570;10.032;2023-05-16T02:47:47;2.75;;;1.00;;
40449;SDS011;41787;53.570;10.032;2023-05-16T02:50:13;5.28;;;1.23;;
40449;SDS011;41787;53.570;10.032;2023-05-16T02:52:39;9.80;;;2.35;;
40449;SDS011;41787;53.570;10.032;2023-05-16T02:55:05;9.70;;;1.02;;
40449;SDS011;41787;53.570;10.032;2023-05-16T02:57:31;5.35;;;1.30;;
40449;SDS011;41787;53.570;10.032;2023-05-16T02:59:57;11.57;;;1.20;;
40449;SDS011;41787;53.570;10.032;2023-05-16T03:02:23;7.65;;;1.08;;
40449;SDS011;41787;53.570;10.032;2023-05-16T03:04:49;7.78;;;2.00;;
40449;SDS011;41787;53.570;10.032;2023-05-16T03:07:15;6.50;;;1.52;;
40449;SDS011;41787;53.570;10.032;2023-05-16T03:09:41;4.28;;;1.30;;
40449;SDS011;41787;53.570;10.032;2023-05-16T03:12:07;8.95;;;1.40;;
40449;SDS011;41787;53.570;10.032;2023-05-16T03:14:33;10.43;;;1.40;;
40449;SDS011;41787;53.570;10.032;2023-05-16T03:16:59;9.00;;;1.35;;
40449;SDS011;41787;53.570;10.032;2023-05-16T03:19:25;10.23;;;1.48;;
40449;SDS011;41787;53.570;10.032;2023-05-16T03:21:51;14.20;;;1.48;;
40449;SDS011;41787;53.570;10.032;2023-05-16T03:24:17;9.07;;;1.48;;
40449;SDS011;41787;53.570;10.032;2023-05-16T03:26:45;7.38;;;1.30;;
40449;SDS011;41787;53.570;10.032;2023-05-16T03:29:11;8.57;;;1.55;;
40449;SDS011;41787;53.570;10.032;2023-05-16T03:31:37;11.77;;;1.77;;
40449;SDS011;41787;53.570;10.032;2023-05-16T03:34:03;7.13;;;1.27;;
40449;SDS011;41787;53.570;10.032;2023-05-16T03:36:29;7.90;;;1.75;;
40449;SDS011;41787;53.570;10.032;2023-05-16T03:38:55;8.23;;;1.38;;
40449;SDS011;41787;53.570;10.032;2023-05-16T03:41:21;5.03;;;1.25;;
40449;SDS011;41787;53.570;10.032;2023-05-16T03:43:47;11.52;;;1.45;;
40449;SDS011;41787;53.570;10.032;2023-05-16T03:46:13;12.65;;;2.15;;
40449;SDS011;41787;53.570;10.032;2023-05-16T03:48:39;10.80;;;1.60;;
40449;SDS011;41787;53.570;10.032;2023-05-16T03:51:05;6.63;;;1.75;;
40449;SDS011;41787;53.570;10.032;2023-05-16T03:53:31;3.28;;;0.68;;
40449;SDS011;41787;53.570;10.032;2023-05-16T03:55:57;8.55;;;1.92;;
40449;SDS011;41787;53.570;10.032;2023-05-16T03:58:23;13.65;;;1.45;;
40449;SDS011;41787;53.570;10.032;2023-05-16T04:00:49;9.20;;;2.45;;
40449;SDS011;41787;53.570;10.032;2023-05-16T04:03:15;16.55;;;2.58;;
40449;SDS011;41787;53.570;10.032;2023-05-16T04:05:41;7.95;;;0.95;;
40449;SDS011;41787;53.570;10.032;2023-05-16T04:08:07;15.13;;;3.20;;
40449;SDS011;41787;53.570;10.032;2023-05-16T04:10:33;16.42;;;2.45;;
40449;SDS011;41787;53.570;10.032;2023-05-16T04:12:59;12.73;;;2.55;;
40449;SDS011;41787;53.570;10.032;2023-05-16T04:15:25;3.88;;;1.67;;
40449;SDS011;41787;53.570;10.032;2023-05-16T04:17:51;4.78;;;2.40;;
40449;SDS011;41787;53.570;10.032;2023-05-16T04:20:17;16.63;;;1.23;;
40449;SDS011;41787;53.570;10.032;2023-05-16T04:22:43;12.95;;;2.22;;
40449;SDS011;41787;53.570;10.032;2023-05-16T04:25:09;13.70;;;1.27;;
40449;SDS011;41787;53.570;10.032;2023-05-16T04:27:36;16.42;;;2.28;;
40449;SDS011;41787;53.570;10.032;2023-05-16T04:30:02;14.15;;;1.63;;
40449;SDS011;41787;53.570;10.032;2023-05-16T04:32:28;12.20;;;1.73;;
40449;SDS011;41787;53.570;10.032;2023-05-16T04:34:54;11.10;;;1.30;;
40449;SDS011;41787;53.570;10.032;2023-05-16T04:37:20;8.57;;;1.35;;
40449;SDS011;41787;53.570;10.032;2023-05-16T04:39:47;8.40;;;2.30;;
40449;SDS011;41787;53.570;10.032;2023-05-16T04:42:13;9.10;;;1.10;;
40449;SDS011;41787;53.570;10.032;2023-05-16T04:44:40;12.60;;;2.83;;
40449;SDS011;41787;53.570;10.032;2023-05-16T04:47:06;5.20;;;0.98;;
40449;SDS011;41787;53.570;10.032;2023-05-16T04:49:32;9.43;;;1.17;;
40449;SDS011;41787;53.570;10.032;2023-05-16T04:51:58;8.80;;;1.90;;
40449;SDS011;41787;53.570;10.032;2023-05-16T04:54:24;9.77;;;1.15;;
40449;SDS011;41787;53.570;10.032;2023-05-16T04:56:50;6.90;;;1.40;;
40449;SDS011;41787;53.570;10.032;2023-05-16T04:59:16;6.57;;;1.65;;
40449;SDS011;41787;53.570;10.032;2023-05-16T05:01:42;8.13;;;1.92;;
40449;SDS011;41787;53.570;10.032;2023-05-16T05:04:08;9.80;;;1.35;;
40449;SDS011;41787;53.570;10.032;2023-05-16T05:06:34;2.95;;;1.00;;
40449;SDS011;41787;53.570;10.032;2023-05-16T05:09:00;7.65;;;1.33;;
40449;SDS011;41787;53.570;10.032;2023-05-16T05:11:25;5.72;;;1.70;;
40449;SDS011;41787;53.570;10.032;2023-05-16T05:13:52;8.27;;;1.63;;
40449;SDS011;41787;53.570;10.032;2023-05-16T05:16:18;10.60;;;2.63;;
40449;SDS011;41787;53.570;10.032;2023-05-16T05:18:43;9.45;;;1.80;;
40449;SDS011;41787;53.570;10.032;2023-05-16T05:21:10;9.65;;;1.95;;
40449;SDS011;41787;53.570;10.032;2023-05-16T05:23:35;8.05;;;1.27;;
40449;SDS011;41787;53.570;10.032;2023-05-16T05:26:01;7.07;;;2.17;;
40449;SDS011;41787;53.570;10.032;2023-05-16T05:28:28;4.80;;;1.23;;
40449;SDS011;41787;53.570;10.032;2023-05-16T05:30:54;9.68;;;1.50;;
40449;SDS011;41787;53.570;10.032;2023-05-16T05:33:22;4.72;;;1.00;;
40449;SDS011;41787;53.570;10.032;2023-05-16T05:35:50;5.38;;;0.98;;
40449;SDS011;41787;53.570;10.032;2023-05-16T05:38:18;5.65;;;0.80;;
40449;SDS011;41787;53.570;10.032;2023-05-16T05:40:44;14.38;;;2.03;;
40449;SDS011;41787;53.570;10.032;2023-05-16T05:43:10;6.78;;;0.75;;
40449;SDS011;41787;53.570;10.032;2023-05-16T05:45:36;6.50;;;1.48;;
40449;SDS011;41787;53.570;10.032;2023-05-16T05:48:02;12.25;;;1.30;;
40449;SDS011;41787;53.570;10.032;2023-05-16T05:50:28;7.60;;;1.08;;
40449;SDS011;41787;53.570;10.032;2023-05-16T05:52:54;12.57;;;1.92;;
40449;SDS011;41787;53.570;10.032;2023-05-16T05:55:20;8.55;;;1.00;;
40449;SDS011;41787;53.570;10.032;2023-05-16T05:57:46;8.00;;;1.25;;
40449;SDS011;41787;53.570;10.032;2023-05-16T06:00:12;6.70;;;1.63;;
40449;SDS011;41787;53.570;10.032;2023-05-16T06:02:38;11.50;;;2.50;;
40449;SDS011;41787;53.570;10.032;2023-05-16T06:05:05;9.25;;;2.13;;
40449;SDS011;41787;53.570;10.032;2023-05-16T06:07:33;4.00;;;1.30;;
40449;SDS011;41787;53.570;10.032;2023-05-16T06:09:59;4.68;;;1.30;;
40449;SDS011;41787;53.570;10.032;2023-05-16T06:12:29;4.40;;;1.05;;
40449;SDS011;41787;53.570;10.032;2023-05-16T06:14:55;13.30;;;1.20;;
40449;SDS011;41787;53.570;10.032;2023-05-16T06:17:21;7.63;;;2.05;;
40449;SDS011;41787;53.570;10.032;2023-05-16T06:19:47;5.70;;;1.30;;
40449;SDS011;41787;53.570;10.032;2023-05-16T06:22:13;4.03;;;0.95;;
40449;SDS011;41787;53.570;10.032;2023-05-16T06:24:39;6.63;;;1.33;;
40449;SDS011;41787;53.570;10.032;2023-05-16T06:27:06;8.75;;;1.08;;
40449;SDS011;41787;53.570;10.032;2023-05-16T06:29:32;4.22;;;0.80;;
40449;SDS011;41787;53.570;10.032;2023-05-16T06:31:58;7.65;;;0.95;;
40449;SDS011;41787;53.570;10.032;2023-05-16T06:34:24;7.63;;;1.38;;
40449;SDS011;41787;53.570;10.032;2023-05-16T06:36:53;8.60;;;0.98;;
40449;SDS011;41787;53.570;10.032;2023-05-16T06:39:19;7.72;;;1.55;;
40449;SDS011;41787;53.570;10.032;2023-05-16T06:41:45;11.10;;;1.42;;
40449;SDS011;41787;53.570;10.032;2023-05-16T06:44:11;9.82;;;1.33;;
40449;SDS011;41787;53.570;10.032;2023-05-16T06:46:37;11.10;;;1.40;;
40449;SDS011;41787;53.570;10.032;2023-05-16T06:49:03;4.07;;;0.90;;
40449;SDS011;41787;53.570;10.032;2023-05-16T06:51:30;8.73;;;1.13;;
40449;SDS011;41787;53.570;10.032;2023-05-16T06:53:56;12.23;;;1.25;;
40449;SDS011;41787;53.570;10.032;2023-05-16T06:56:22;1.75;;;1.02;;
40449;SDS011;41787;53.570;10.032;2023-05-16T06:58:48;4.72;;;1.02;;
40449;SDS011;41787;53.570;10.032;2023-05-16T07:01:15;10.68;;;0.98;;
40449;SDS011;41787;53.570;10.032;2023-05-16T07:03:41;13.00;;;1.45;;
40449;SDS011;41787;53.570;10.032;2023-05-16T07:06:07;9.98;;;1.90;;
40449;SDS011;41787;53.570;10.032;2023-05-16T07:08:33;5.75;;;0.98;;
40449;SDS011;41787;53.570;10.032;2023-05-16T07:11:00;4.30;;;0.82;;
40449;SDS011;41787;53.570;10.032;2023-05-16T07:13:26;6.82;;;1.02;;
40449;SDS011;41787;53.570;10.032;2023-05-16T07:15:52;8.55;;;1.20;;
40449;SDS011;41787;53.570;10.032;2023-05-16T07:18:18;4.43;;;0.77;;
40449;SDS011;41787;53.570;10.032;2023-05-16T07:20:44;4.57;;;1.05;;
40449;SDS011;41787;53.570;10.032;2023-05-16T07:23:11;7.85;;;1.00;;
40449;SDS011;41787;53.570;10.032;2023-05-16T07:25:37;5.25;;;0.73;;
40449;SDS011;41787;53.570;10.032;2023-05-16T07:28:03;7.80;;;1.17;;
40449;SDS011;41787;53.570;10.032;2023-05-16T07:30:29;8.82;;;1.30;;
40449;SDS011;41787;53.570;10.032;2023-05-16T07:32:55;4.43;;;1.17;;
40449;SDS011;41787;53.570;10.032;2023-05-16T07:35:21;6.28;;;0.80;;
40449;SDS011;41787;53.570;10.032;2023-05-16T07:37:47;10.23;;;0.95;;
40449;SDS011;41787;53.570;10.032;2023-05-16T07:40:13;3.33;;;0.73;;
40449;SDS011;41787;53.570;10.032;2023-05-16T07:42:39;3.58;;;0.68;;
40449;SDS011;41787;53.570;10.032;2023-05-16T07:45:05;3.45;;;0.60;;
40449;SDS011;41787;53.570;10.032;2023-05-16T07:47:32;2.65;;;0.47;;
40449;SDS011;41787;53.570;10.032;2023-05-16T07:49:58;6.13;;;0.90;;
40449;SDS011;41787;53.570;10.032;2023-05-16T07:52:24;2.28;;;0.40;;
40449;SDS011;41787;53.570;10.032;2023-05-16T07:54:50;6.80;;;1.30;;
40449;SDS011;41787;53.570;10.032;2023-05-16T07:57:16;8.93;;;0.88;;
40449;SDS011;41787;53.570;10.032;2023-05-16T07:59:42;12.13;;;1.15;;
40449;SDS011;41787;53.570;10.032;2023-05-16T08:02:09;4.75;;;0.93;;
40449;SDS011;41787;53.570;10.032;2023-05-16T08:04:35;2.83;;;1.38;;
40449;SDS011;41787;53.570;10.032;2023-05-16T08:07:01;2.78;;;1.00;;
40449;SDS011;41787;53.570;10.032;2023-05-16T08:09:27;7.43;;;1.10;;
40449;SDS011;41787;53.570;10.032;2023-05-16T08:11:53;4.60;;;1.23;;
40449;SDS011;41787;53.570;10.032;2023-05-16T08:14:19;5.60;;;0.75;;
40449;SDS011;41787;53.570;10.032;2023-05-16T08:16:45;6.40;;;1.20;;
40449;SDS011;41787;53.570;10.032;2023-05-16T08:19:11;12.80;;;1.80;;
40449;SDS011;41787;53.570;10.032;2023-05-16T08:21:37;7.40;;;1.42;;
40449;SDS011;41787;53.570;10.032;2023-05-16T08:24:04;5.75;;;0.63;;
40449;SDS011;41787;53.570;10.032;2023-05-16T08:26:31;10.55;;;1.00;;
40449;SDS011;41787;53.570;10.032;2023-05-16T08:28:57;2.30;;;0.70;;
40449;SDS011;41787;53.570;10.032;2023-05-16T08:31:23;5.05;;;0.90;;
40449;SDS011;41787;53.570;10.032;2023-05-16T08:33:49;11.95;;;1.20;;
40449;SDS011;41787;53.570;10.032;2023-05-16T08:36:15;6.68;;;0.90;;
40449;SDS011;41787;53.570;10.032;2023-05-16T08:38:43;6.70;;;1.10;;
40449;SDS011;41787;53.570;10.032;2023-05-16T08:41:09;4.65;;;0.75;;
40449;SDS011;41787;53.570;10.032;2023-05-16T08:43:35;8.90;;;1.38;;
40449;SDS011;41787;53.570;10.032;2023-05-16T08:46:01;5.80;;;0.82;;
40449;SDS011;41787;53.570;10.032;2023-05-16T08:48:27;5.45;;;0.90;;
40449;SDS011;41787;53.570;10.032;2023-05-16T08:50:55;2.92;;;0.93;;
40449;SDS011;41787;53.570;10.032;2023-05-16T08:53:21;6.82;;;0.90;;
40449;SDS011;41787;53.570;10.032;2023-05-16T08:55:50;3.63;;;0.80;;
40449;SDS011;41787;53.570;10.032;2023-05-16T08:58:17;2.17;;;0.55;;
40449;SDS011;41787;53.570;10.032;2023-05-16T09:00:44;1.30;;;0.60;;
40449;SDS011;41787;53.570;10.032;2023-05-16T09:03:11;12.95;;;1.35;;
40449;SDS011;41787;53.570;10.032;2023-05-16T09:05:37;2.13;;;0.52;;
40449;SDS011;41787;53.570;10.032;2023-05-16T09:08:03;2.65;;;0.73;;
40449;SDS011;41787;53.570;10.032;2023-05-16T09:10:29;3.45;;;1.00;;
40449;SDS011;41787;53.570;10.032;2023-05-16T09:12:55;8.68;;;1.55;;
40449;SDS011;41787;53.570;10.032;2023-05-16T09:15:21;4.78;;;1.35;;
40449;SDS011;41787;53.570;10.032;2023-05-16T09:17:47;6.43;;;0.68;;
40449;SDS011;41787;53.570;10.032;2023-05-16T09:20:14;3.00;;;1.00;;
40449;SDS011;41787;53.570;10.032;2023-05-16T09:22:54;6.20;;;0.60;;
40449;SDS011;41787;53.570;10.032;2023-05-16T09:25:21;4.68;;;0.52;;
40449;SDS011;41787;53.570;10.032;2023-05-16T09:27:47;4.95;;;1.00;;
40449;SDS011;41787;53.570;10.032;2023-05-16T09:30:14;7.28;;;1.10;;
40449;SDS011;41787;53.570;10.032;2023-05-16T09:32:43;5.22;;;0.88;;
40449;SDS011;41787;53.570;10.032;2023-05-16T09:35:13;3.60;;;0.90;;
40449;SDS011;41787;53.570;10.032;2023-05-16T09:37:43;5.80;;;1.27;;
40449;SDS011;41787;53.570;10.032;2023-05-16T09:40:10;2.30;;;0.70;;
40449;SDS011;41787;53.570;10.032;2023-05-16T09:42:36;9.32;;;0.73;;
40449;SDS011;41787;53.570;10.032;2023-05-16T09:45:03;3.85;;;0.90;;
40449;SDS011;41787;53.570;10.032;2023-05-16T09:47:29;8.30;;;0.93;;
40449;SDS011;41787;53.570;10.032;2023-05-16T09:49:55;6.60;;;1.17;;
40449;SDS011;41787;53.570;10.032;2023-05-16T09:52:21;8.00;;;0.82;;
40449;SDS011;41787;53.570;10.032;2023-05-16T09:54:47;7.15;;;1.05;;
40449;SDS011;41787;53.570;10.032;2023-05-16T09:57:20;3.30;;;0.50;;
40449;SDS011;41787;53.570;10.032;2023-05-16T09:59:47;7.80;;;0.90;;
40449;SDS011;41787;53.570;10.032;2023-05-16T10:02:13;6.75;;;0.75;;
40449;SDS011;41787;53.570;10.032;2023-05-16T10:04:39;10.45;;;1.15;;
40449;SDS011;41787;53.570;10.032;2023-05-16T10:07:05;7.22;;;0.93;;
40449;SDS011;41787;53.570;10.032;2023-05-16T10:09:33;6.60;;;0.63;;
40449;SDS011;41787;53.570;10.032;2023-05-16T10:12:00;12.77;;;1.08;;
40449;SDS011;41787;53.570;10.032;2023-05-16T10:14:28;6.13;;;1.02;;
40449;SDS011;41787;53.570;10.032;2023-05-16T10:16:55;7.57;;;0.80;;
40449;SDS011;41787;53.570;10.032;2023-05-16T10:19:22;5.13;;;1.10;;
40449;SDS011;41787;53.570;10.032;2023-05-16T10:21:52;4.15;;;0.80;;
40449;SDS011;41787;53.570;10.032;2023-05-16T10:24:21;10.27;;;1.17;;
40449;SDS011;41787;53.570;10.032;2023-05-16T10:26:49;4.68;;;0.90;;
40449;SDS011;41787;53.570;10.032;2023-05-16T10:29:16;10.77;;;1.15;;
40449;SDS011;41787;53.570;10.032;2023-05-16T10:31:42;10.45;;;1.88;;
40449;SDS011;41787;53.570;10.032;2023-05-16T10:34:09;3.47;;;0.82;;
40449;SDS011;41787;53.570;10.032;2023-05-16T10:36:35;5.53;;;1.63;;
40449;SDS011;41787;53.570;10.032;2023-05-16T10:39:02;9.45;;;1.23;;
40449;SDS011;41787;53.570;10.032;2023-05-16T10:41:28;3.42;;;0.75;;
40449;SDS011;41787;53.570;10.032;2023-05-16T10:43:55;12.90;;;1.25;;
40449;SDS011;41787;53.570;10.032;2023-05-16T10:46:22;5.55;;;0.85;;
40449;SDS011;41787;53.570;10.032;2023-05-16T10:48:48;4.47;;;1.02;;
40449;SDS011;41787;53.570;10.032;2023-05-16T10:51:33;4.72;;;1.10;;
40449;SDS011;41787;53.570;10.032;2023-05-16T10:54:04;6.25;;;1.08;;
40449;SDS011;41787;53.570;10.032;2023-05-16T10:56:31;8.88;;;1.00;;
40449;SDS011;41787;53.570;10.032;2023-05-16T10:58:58;10.48;;;1.60;;
40449;SDS011;41787;53.570;10.032;2023-05-16T11:06:26;5.00;;;0.90;;
40449;SDS011;41787;53.570;10.032;2023-05-16T11:11:46;5.47;;;0.93;;
40449;SDS011;41787;53.570;10.032;2023-05-16T11:19:44;5.85;;;1.02;;
40449;SDS011;41787;53.570;10.032;2023-05-16T11:22:11;3.85;;;1.00;;
40449;SDS011;41787;53.570;10.032;2023-05-16T11:24:47;7.85;;;0.60;;
40449;SDS011;41787;53.570;10.032;2023-05-16T11:27:18;5.60;;;0.93;;
40449;SDS011;41787;53.570;10.032;2023-05-16T11:29:45;1.85;;;0.50;;
40449;SDS011;41787;53.570;10.032;2023-05-16T11:32:11;6.78;;;0.77;;
40449;SDS011;41787;53.570;10.032;2023-05-16T11:34:37;2.70;;;0.30;;
40449;SDS011;41787;53.570;10.032;2023-05-16T11:37:03;3.10;;;0.60;;
40449;SDS011;41787;53.570;10.032;2023-05-16T11:39:30;4.68;;;0.85;;
40449;SDS011;41787;53.570;10.032;2023-05-16T11:41:57;3.65;;;1.00;;
40449;SDS011;41787;53.570;10.032;2023-05-16T11:44:23;2.47;;;0.70;;
40449;SDS011;41787;53.570;10.032;2023-05-16T11:46:48;7.28;;;0.73;;
40449;SDS011;41787;53.570;10.032;2023-05-16T11:49:14;2.83;;;0.50;;
40449;SDS011;41787;53.570;10.032;2023-05-16T11:51:42;3.00;;;0.52;;
40449;SDS011;41787;53.570;10.032;2023-05-16T11:54:08;2.35;;;0.82;;
40449;SDS011;41787;53.570;10.032;2023-05-16T11:56:34;4.35;;;0.50;;
40449;SDS011;41787;53.570;10.032;2023-05-16T11:59:00;3.38;;;0.52;;
40449;SDS011;41787;53.570;10.032;2023-05-16T12:01:37;7.32;;;0.85;;
40449;SDS011;41787;53.570;10.032;2023-05-16T12:04:09;1.40;;;0.38;;
40449;SDS011;41787;53.570;10.032;2023-05-16T12:06:36;2.90;;;0.47;;
40449;SDS011;41787;53.570;10.032;2023-05-16T12:09:03;6.30;;;0.55;;
40449;SDS011;41787;53.570;10.032;2023-05-16T12:11:37;4.18;;;0.90;;
40449;SDS011;41787;53.570;10.032;2023-05-16T12:14:04;6.93;;;1.63;;
40449;SDS011;41787;53.570;10.032;2023-05-16T12:16:30;8.20;;;1.13;;
40449;SDS011;41787;53.570;10.032;2023-05-16T12:18:56;8.63;;;0.73;;
40449;SDS011;41787;53.570;10.032;2023-05-16T12:21:22;7.25;;;0.90;;
40449;SDS011;41787;53.570;10.032;2023-05-16T12:23:48;4.07;;;0.65;;
40449;SDS011;41787;53.570;10.032;2023-05-16T12:26:15;4.30;;;0.45;;
40449;SDS011;41787;53.570;10.032;2023-05-16T12:28:52;3.08;;;0.25;;
40449;SDS011;41787;53.570;10.032;2023-05-16T12:31:20;5.97;;;0.75;;
40449;SDS011;41787;53.570;10.032;2023-05-16T12:33:46;4.30;;;0.75;;
40449;SDS011;41787;53.570;10.032;2023-05-16T12:36:12;4.95;;;0.60;;
40449;SDS011;41787;53.570;10.032;2023-05-16T12:38:39;1.70;;;0.63;;
40449;SDS011;41787;53.570;10.032;2023-05-16T12:41:06;1.55;;;0.32;;
40449;SDS011;41787;53.570;10.032;2023-05-16T12:43:32;6.45;;;0.35;;
40449;SDS011;41787;53.570;10.032;2023-05-16T12:45:58;1.85;;;0.57;;
40449;SDS011;41787;53.570;10.032;2023-05-16T12:48:30;6.07;;;0.95;;
40449;SDS011;41787;53.570;10.032;2023-05-16T12:51:07;10.82;;;0.90;;
40449;SDS011;41787;53.570;10.032;2023-05-16T12:53:34;2.85;;;1.20;;
40449;SDS011;41787;53.570;10.032;2023-05-16T12:56:05;6.10;;;1.02;;
40449;SDS011;41787;53.570;10.032;2023-05-16T12:58:31;5.32;;;0.47;;
40449;SDS011;41787;53.570;10.032;2023-05-16T13:00:57;9.35;;;1.55;;
40449;SDS011;41787;53.570;10.032;2023-05-16T13:03:23;9.10;;;1.05;;
40449;SDS011;41787;53.570;10.032;2023-05-16T13:05:50;4.65;;;0.93;;
40449;SDS011;41787;53.570;10.032;2023-05-16T13:08:16;2.90;;;0.50;;
40449;SDS011;41787;53.570;10.032;2023-05-16T13:10:42;7.30;;;1.00;;
40449;SDS011;41787;53.570;10.032;2023-05-16T13:13:08;6.65;;;1.38;;
40449;SDS011;41787;53.570;10.032;2023-05-16T13:15:34;2.58;;;0.95;;
40449;SDS011;41787;53.570;10.032;2023-05-16T13:18:00;2.72;;;0.88;;
40449;SDS011;41787;53.570;10.032;2023-05-16T13:20:26;5.90;;;1.50;;
40449;SDS011;41787;53.570;10.032;2023-05-16T13:22:52;4.45;;;0.95;;
40449;SDS011;41787;53.570;10.032;2023-05-16T13:25:19;1.55;;;0.73;;
40449;SDS011;41787;53.570;10.032;2023-05-16T13:27:45;2.35;;;0.82;;
40449;SDS011;41787;53.570;10.032;2023-05-16T13:30:13;2.67;;;0.52;;
40449;SDS011;41787;53.570;10.032;2023-05-16T13:32:39;4.40;;;0.88;;
40449;SDS011;41787;53.570;10.032;2023-05-16T13:35:05;3.35;;;1.00;;
40449;SDS011;41787;53.570;10.032;2023-05-16T13:37:32;4.20;;;0.60;;
40449;SDS011;41787;53.570;10.032;2023-05-16T13:39:58;2.88;;;0.63;;
40449;SDS011;41787;53.570;10.032;2023-05-16T13:42:24;3.25;;;0.55;;
40449;SDS011;41787;53.570;10.032;2023-05-16T13:44:50;1.08;;;0.43;;
40449;SDS011;41787;53.570;10.032;2023-05-16T13:47:16;11.18;;;0.95;;
40449;SDS011;41787;53.570;10.032;2023-05-16T13:49:42;5.07;;;0.80;;
40449;SDS011;41787;53.570;10.032;2023-05-16T13:52:07;1.98;;;1.00;;
40449;SDS011;41787;53.570;10.032;2023-05-16T13:54:33;5.60;;;0.90;;
40449;SDS011;41787;53.570;10.032;2023-05-16T13:56:59;2.33;;;0.82;;
40449;SDS011;41787;53.570;10.032;2023-05-16T13:59:27;4.90;;;0.45;;
40449;SDS011;41787;53.570;10.032;2023-05-16T14:01:53;3.42;;;0.70;;
40449;SDS011;41787;53.570;10.032;2023-05-16T14:04:20;0.88;;;0.35;;
40449;SDS011;41787;53.570;10.032;2023-05-16T14:06:46;2.72;;;0.60;;
40449;SDS011;41787;53.570;10.032;2023-05-16T14:09:13;1.50;;;0.30;;
40449;SDS011;41787;53.570;10.032;2023-05-16T14:11:39;4.15;;;0.50;;
40449;SDS011;41787;53.570;10.032;2023-05-16T14:14:05;5.05;;;0.30;;
40449;SDS011;41787;53.570;10.032;2023-05-16T14:16:31;0.90;;;0.40;;
40449;SDS011;41787;53.570;10.032;2023-05-16T14:18:57;7.78;;;0.80;;
40449;SDS011;41787;53.570;10.032;2023-05-16T14:21:23;7.97;;;0.65;;
40449;SDS011;41787;53.570;10.032;2023-05-16T14:23:49;3.10;;;0.60;;
40449;SDS011;41787;53.570;10.032;2023-05-16T14:26:15;2.85;;;0.52;;
40449;SDS011;41787;53.570;10.032;2023-05-16T14:28:42;3.78;;;0.52;;
40449;SDS011;41787;53.570;10.032;2023-05-16T14:31:08;10.07;;;1.20;;
40449;SDS011;41787;53.570;10.032;2023-05-16T14:33:34;2.55;;;0.52;;
40449;SDS011;41787;53.570;10.032;2023-05-16T14:36:00;5.95;;;0.80;;
40449;SDS011;41787;53.570;10.032;2023-05-16T14:38:26;6.28;;;0.70;;
40449;SDS011;41787;53.570;10.032;2023-05-16T14:40:52;1.90;;;0.50;;
40449;SDS011;41787;53.570;10.032;2023-05-16T14:43:18;6.75;;;0.85;;
40449;SDS011;41787;53.570;10.032;2023-05-16T14:45:44;2.50;;;0.73;;
40449;SDS011;41787;53.570;10.032;2023-05-16T14:48:10;0.85;;;0.43;;
40449;SDS011;41787;53.570;10.032;2023-05-16T14:50:36;7.38;;;1.27;;
40449;SDS011;41787;53.570;10.032;2023-05-16T14:53:02;3.10;;;0.68;;